Time;durP1;ratioP1;P1;durP2;ratioP2;P2;SDS_P1;SDS_P2;PMS_P1;PMS_P2;Temp;Humidity;BMP_temperature;BMP_pressure;BME280_temperature;BME280_humidity;BME280_pressure;Samples;Min_cycle;Max_cycle;Signal;HPM_P1;HPM_P2
2022/01/08 00:00:09;;;;;;;26.38;13.05;;;5.20;49.00;;;;;;5057574;28;20031;-87
2022/01/08 00:02:34;;;;;;;;;;;5.10;48.70;;;;;;5057607;28;20113;-86
2022/01/08 00:05:00;;;;;;;25.48;13.50;;;5.10;49.40;;;;;;5057398;28;20003;-87
2022/01/08 00:07:26;;;;;;;32.78;16.60;;;5.30;49.20;;;;;;5057169;28;20032;-87
2022/01/08 00:09:53;;;;;;;33.10;16.58;;;5.50;48.80;;;;;;5057099;28;20020;-86
2022/01/08 00:12:19;;;;;;;39.58;18.05;;;5.60;48.80;;;;;;5057100;28;20020;-87
2022/01/08 00:14:45;;;;;;;41.33;17.65;;;5.50;48.50;;;;;;5056958;28;20025;-86
2022/01/08 00:17:10;;;;;;;43.28;19.70;;;5.50;49.00;;;;;;5057425;28;20012;-86
2022/01/08 00:19:36;;;;;;;55.50;22.25;;;5.20;49.50;;;;;;5057071;28;20467;-86
2022/01/08 00:22:02;;;;;;;51.72;21.42;;;4.90;50.40;;;;;;5056910;28;20375;-86
2022/01/08 00:24:30;;;;;;;51.80;20.98;;;5.00;50.20;;;;;;5053174;28;20553;-87
2022/01/08 00:26:55;;;;;;;40.47;18.08;;;5.20;50.00;;;;;;5053681;28;20515;-87
2022/01/08 00:29:23;;;;;;;43.00;19.75;;;5.20;49.90;;;;;;5053561;28;20112;-86
2022/01/08 00:31:49;;;;;;;48.35;20.25;;;5.20;50.10;;;;;;5053287;28;20071;-87
2022/01/08 00:34:15;;;;;;;59.17;23.15;;;4.90;50.70;;;;;;5053407;28;20024;-87
2022/01/08 00:36:40;;;;;;;50.80;21.83;;;4.80;50.90;;;;;;5053516;28;20078;-87
2022/01/08 00:39:06;;;;;;;45.30;19.38;;;4.80;51.20;;;;;;5053614;28;20033;-87
2022/01/08 00:41:32;;;;;;;43.08;19.45;;;5.10;50.70;;;;;;5053243;28;20021;-87
2022/01/08 00:43:58;;;;;;;41.33;20.20;;;5.40;50.50;;;;;;5053052;28;20059;-87
2022/01/08 00:46:24;;;;;;;43.88;20.45;;;5.40;50.70;;;;;;5053069;28;20017;-87
2022/01/08 00:48:49;;;;;;;46.97;21.48;;;5.50;50.50;;;;;;5053151;28;20029;-87
2022/01/08 00:51:15;;;;;;;46.45;21.25;;;5.20;50.90;;;;;;5053644;28;20050;-88
2022/01/08 00:53:41;;;;;;;41.45;19.20;;;5.10;51.10;;;;;;5053242;28;20166;-87
2022/01/08 00:56:07;;;;;;;39.80;18.40;;;4.90;51.70;;;;;;4353794;28;10000683;-87
2022/01/08 00:58:32;;;;;;;44.38;18.88;;;4.60;52.30;;;;;;5053129;28;20025;-88
2022/01/08 01:00:58;;;;;;;35.13;16.38;;;4.80;52.30;;;;;;5053137;28;20028;-87
2022/01/08 01:03:24;;;;;;;31.30;15.65;;;5.00;51.70;;;;;;5052736;28;20468;-86
2022/01/08 01:05:50;;;;;;;31.58;15.85;;;5.30;51.30;;;;;;5052989;28;20023;-87
2022/01/08 01:08:16;;;;;;;35.95;17.42;;;5.50;50.70;;;;;;5052949;28;20095;-87
2022/01/08 01:10:41;;;;;;;33.22;16.70;;;5.50;50.70;;;;;;5052002;28;20030;-88
2022/01/08 01:13:08;;;;;;;43.25;20.02;;;5.40;50.40;;;;;;5052696;28;20048;-87
2022/01/08 01:15:33;;;;;;;39.53;19.27;;;5.00;51.90;;;;;;5052911;28;20013;-87
2022/01/08 01:17:59;;;;;;;38.45;17.73;;;4.80;52.30;;;;;;5052634;28;20021;-87
2022/01/08 01:20:25;;;;;;;39.47;18.98;;;4.90;51.90;;;;;;5052630;28;20357;-87
2022/01/08 01:25:23;;;;;;;35.75;17.40;;;4.90;51.50;;;;;;5071226;28;20486;-87
2022/01/08 01:30:25;;;;;;;33.00;16.77;;;4.50;52.10;;;;;;5073879;28;20136;-88
2022/01/08 01:41:14;;;;;;;33.65;16.08;;;4.80;51.90;;;;;;5073596;28;20035;-86
2022/01/08 01:48:50;;;;;;;30.58;15.55;;;5.00;51.10;;;;;;5073593;28;20021;-89
2022/01/08 01:51:23;;;;;;;32.88;15.43;;;5.00;51.00;;;;;;5055290;28;20032;-87
2022/01/08 01:53:49;;;;;;;30.20;16.17;;;4.60;50.50;;;;;;5055897;28;20025;-88
2022/01/08 01:56:17;;;;;;;31.17;15.05;;;4.60;51.50;;;;;;5055477;28;20051;-87
2022/01/08 01:58:43;;;;;;;32.22;15.95;;;4.60;51.00;;;;;;5055427;28;20016;-90
2022/01/08 02:01:08;;;;;;;29.98;15.75;;;4.60;50.90;;;;;;5055428;28;20074;-90
2022/01/08 02:03:35;;;;;;;30.58;15.48;;;4.40;51.10;;;;;;5055403;28;20036;-89
2022/01/08 02:06:01;;;;;;;31.92;14.95;;;4.10;51.20;;;;;;5055362;28;20024;-89
2022/01/08 02:08:29;;;;;;;30.23;15.00;;;4.20;51.50;;;;;;5055515;28;20103;-89
2022/01/08 02:10:54;;;;;;;28.45;14.00;;;4.10;51.60;;;;;;5055735;28;20032;-89
2022/01/08 02:13:26;;;;;;;32.63;14.05;;;4.20;51.20;;;;;;5055541;28;20074;-89
2022/01/08 02:15:54;;;;;;;28.05;14.60;;;4.00;51.40;;;;;;5055337;28;20134;-89
2022/01/08 02:18:27;;;;;;;27.73;13.90;;;4.00;51.80;;;;;;5055370;28;20031;-89
2022/01/08 02:20:54;;;;;;;27.15;14.18;;;4.20;50.90;;;;;;5055405;28;20506;-89
2022/01/08 02:23:20;;;;;;;27.67;13.88;;;4.10;51.10;;;;;;5057886;28;20021;-89
2022/01/08 02:25:45;;;;;;;25.17;13.15;;;4.00;51.30;;;;;;5059415;28;20028;-89
2022/01/08 02:28:11;;;;;;;29.02;13.68;;;3.90;51.10;;;;;;5059406;28;20107;-88
2022/01/08 02:30:37;;;;;;;31.17;14.77;;;4.00;51.20;;;;;;5059082;28;20025;-89
2022/01/08 02:33:03;;;;;;;27.05;13.25;;;4.20;51.00;;;;;;5059196;28;20443;-88
2022/01/08 02:35:28;;;;;;;27.95;13.60;;;4.40;50.60;;;;;;5058971;28;20017;-89
2022/01/08 02:37:54;;;;;;;27.10;14.40;;;4.50;50.20;;;;;;5058852;28;20025;-89
2022/01/08 02:40:21;;;;;;;26.27;13.05;;;4.50;50.00;;;;;;5058884;28;20028;-88
2022/01/08 02:42:59;;;;;;;30.00;13.25;;;4.10;49.50;;;;;;5058729;28;20044;-89
2022/01/08 02:45:27;;;;;;;30.58;13.60;;;3.60;50.40;;;;;;5058701;28;20479;-88
2022/01/08 02:47:54;;;;;;;27.40;13.00;;;3.10;51.20;;;;;;5058635;28;20024;-88
2022/01/08 02:50:21;;;;;;;27.83;13.38;;;3.10;52.60;;;;;;5058819;28;20107;-88
2022/01/08 02:52:48;;;;;;;32.13;13.90;;;3.20;51.90;;;;;;5058422;28;20044;-88
2022/01/08 02:55:18;;;;;;;29.67;12.85;;;3.40;51.90;;;;;;5058720;28;20074;-88
2022/01/08 02:57:44;;;;;;;24.52;11.82;;;3.80;52.00;;;;;;5058459;28;20398;-89
2022/01/08 03:00:13;;;;;;;27.20;12.93;;;3.80;51.50;;;;;;5058323;28;20024;-88
2022/01/08 03:02:47;;;;;;;25.05;12.20;;;4.00;51.30;;;;;;5058658;28;20017;-88
2022/01/08 03:05:13;;;;;;;22.88;10.80;;;4.20;50.90;;;;;;5058506;28;20031;-88
2022/01/08 03:07:43;;;;;;;22.77;11.45;;;4.20;51.10;;;;;;5058488;28;20451;-87
2022/01/08 03:10:10;;;;;;;;;;;3.90;52.10;;;;;;5058737;28;20035;-88
2022/01/08 03:12:43;;;;;;;24.67;11.57;;;4.00;51.60;;;;;;5058301;28;19901;-87
2022/01/08 03:15:15;;;;;;;21.20;10.48;;;3.90;51.00;;;;;;5058399;28;20021;-87
2022/01/08 03:17:42;;;;;;;19.55;10.60;;;3.90;50.80;;;;;;5058234;28;20024;-87
2022/01/08 03:20:11;;;;;;;19.70;9.32;;;3.20;53.40;;;;;;5057985;28;20016;-89
2022/01/08 03:22:39;;;;;;;21.05;10.48;;;3.40;53.80;;;;;;5058030;28;20020;-89
2022/01/08 03:25:06;;;;;;;23.98;11.10;;;3.50;53.10;;;;;;5057898;28;20078;-88
2022/01/08 03:27:32;;;;;;;19.77;9.98;;;3.20;54.20;;;;;;5058111;28;20020;-87
2022/01/08 03:29:58;;;;;;;19.83;9.63;;;2.80;55.50;;;;;;5058387;28;20025;-87
2022/01/08 03:32:24;;;;;;;25.48;10.60;;;2.90;55.40;;;;;;5057574;28;20032;-89
2022/01/08 03:34:51;;;;;;;19.67;10.02;;;2.90;54.90;;;;;;5057591;28;20028;-87
2022/01/08 03:37:17;;;;;;;21.77;9.80;;;3.20;54.90;;;;;;5057949;28;20408;-87
2022/01/08 03:39:42;;;;;;;17.40;9.50;;;3.00;54.90;;;;;;5058062;28;20128;-88
2022/01/08 03:42:09;;;;;;;21.60;9.43;;;3.30;54.10;;;;;;5057471;28;20109;-88
2022/01/08 03:44:34;;;;;;;19.23;9.52;;;3.60;53.00;;;;;;5057717;28;20144;-88
2022/01/08 03:49:45;;;;;;;17.33;8.55;;;3.90;51.10;;;;;;5075718;28;20040;-87
2022/01/08 03:52:12;;;;;;;19.63;9.00;;;3.90;51.10;;;;;;5057538;28;20012;-87
2022/01/08 03:54:38;;;;;;;16.80;7.28;;;4.00;50.60;;;;;;5057589;28;20138;-88
2022/01/08 03:57:04;;;;;;;17.88;9.15;;;4.10;50.20;;;;;;5057337;28;20119;-87
2022/01/08 03:59:30;;;;;;;17.67;8.65;;;4.00;50.00;;;;;;5057481;28;20107;-87
2022/01/08 04:01:56;;;;;;;17.48;8.05;;;4.20;50.10;;;;;;5057210;28;20024;-87
2022/01/08 04:04:21;;;;;;;17.23;8.07;;;4.30;50.10;;;;;;5057101;28;20039;-87
2022/01/08 04:06:47;;;;;;;16.25;7.82;;;4.00;50.60;;;;;;5057330;28;20024;-87
2022/01/08 04:09:14;;;;;;;17.65;8.93;;;3.50;51.70;;;;;;5057337;28;20034;-87
2022/01/08 04:11:40;;;;;;;15.70;7.90;;;3.60;52.10;;;;;;5057385;28;20029;-87
2022/01/08 04:14:05;;;;;;;16.63;7.70;;;3.80;51.00;;;;;;5057161;28;20077;-88
2022/01/08 04:16:34;;;;;;;17.02;7.82;;;3.50;50.50;;;;;;5057259;28;20017;-87
2022/01/08 04:19:00;;;;;;;15.65;8.30;;;3.50;51.10;;;;;;5056788;28;20027;-87
2022/01/08 04:23:52;;;;;;;12.85;7.15;;;3.60;50.70;;;;;;5074827;28;20151;-88
2022/01/08 04:26:19;;;;;;;16.98;7.85;;;3.30;50.90;;;;;;5056913;28;20048;-87
2022/01/08 04:28:45;;;;;;;18.17;8.65;;;2.80;51.50;;;;;;5056831;28;20426;-87
2022/01/08 04:31:11;;;;;;;15.35;8.23;;;2.70;51.70;;;;;;5056721;28;20012;-90
2022/01/08 04:33:37;;;;;;;16.70;7.90;;;3.10;51.50;;;;;;5056682;28;20020;-86
2022/01/08 07:43:41;;;;;;;25.17;11.30;;;3.40;50.10;;;;;;5616851;23;20547;-91
2022/01/08 09:31:22;;;;;;;23.87;12.92;;;19.10;33.50;;;;;;5309112;23;10002861;-85
2022/01/08 09:37:10;;;;;;;26.92;17.00;;;20.10;33.00;;;;;;4918193;29;20075;-84
2022/01/08 09:39:47;;;;;;;24.05;14.40;;;20.90;32.70;;;;;;4917785;29;20484;-85
2022/01/08 09:42:13;;;;;;;19.27;11.57;;;21.30;32.40;;;;;;4896690;29;20495;-81
2022/01/08 09:44:43;;;;;;;21.17;12.85;;;21.30;31.90;;;;;;4916154;29;20487;-82
2022/01/08 09:47:09;;;;;;;19.50;11.07;;;21.20;32.20;;;;;;4899976;29;20013;-83
2022/01/08 09:49:35;;;;;;;19.10;12.13;;;21.80;31.90;;;;;;4898501;29;20028;-81
2022/01/08 09:52:03;;;;;;;22.13;13.77;;;22.10;31.80;;;;;;4916144;29;20020;-81
2022/01/08 09:54:30;;;;;;;25.95;12.52;;;22.40;31.60;;;;;;4898207;29;20028;-81
2022/01/08 09:56:55;;;;;;;22.85;10.65;;;22.90;31.30;;;;;;4898048;29;20384;-81
2022/01/08 09:59:21;;;;;;;15.95;9.90;;;23.30;30.90;;;;;;4897410;29;20577;-80
2022/01/08 10:02:01;;;;;;;17.85;9.80;;;23.30;30.80;;;;;;4880529;29;20108;-82
2022/01/08 10:04:29;;;;;;;18.40;10.93;;;22.50;30.00;;;;;;4878908;29;20068;-81
2022/01/08 10:07:14;;;;;;;17.63;9.90;;;21.90;31.70;;;;;;4879305;29;20025;-80
2022/01/08 10:10:10;;;;;;;14.50;9.65;;;21.60;31.60;;;;;;4894814;29;20027;-80
2022/01/08 10:12:45;;;;;;;14.77;8.60;;;21.70;31.30;;;;;;4878182;29;20384;-80
2022/01/08 10:17:59;;;;;;;15.05;8.65;;;20.90;31.00;;;;;;4895387;29;20076;-79
2022/01/08 10:20:36;;;;;;;11.93;7.78;;;20.00;31.90;;;;;;4895593;29;20657;-78
2022/01/08 10:23:14;;;;;;;12.40;7.78;;;19.50;32.40;;;;;;4879651;29;20111;-82
2022/01/08 10:25:54;;;;;;;13.93;8.18;;;18.40;33.00;;;;;;4895798;29;20115;-80
2022/01/08 10:28:31;;;;;;;12.38;8.23;;;18.50;33.10;;;;;;4879674;29;20021;-81
2022/01/08 10:31:07;;;;;;;13.00;7.88;;;18.30;33.10;;;;;;4879872;29;20128;-92
2022/01/08 10:33:33;;;;;;;15.43;8.68;;;18.50;32.80;;;;;;4900587;29;20049;-81
2022/01/08 10:35:59;;;;;;;13.30;8.25;;;18.60;33.10;;;;;;4914580;29;20052;-91
2022/01/08 10:38:29;;;;;;;16.27;10.07;;;17.80;33.10;;;;;;4898478;29;20023;-92
2022/01/08 10:40:57;;;;;;;26.50;18.10;;;17.20;33.60;;;;;;4898025;29;20388;-77
2022/01/08 10:43:31;;;;;;;16.10;10.05;;;16.60;35.30;;;;;;4899730;29;20031;-78
2022/01/08 10:46:08;;;;;;;15.07;9.05;;;16.80;34.20;;;;;;4902369;29;20071;-78
2022/01/08 10:48:35;;;;;;;12.68;8.15;;;16.20;34.40;;;;;;4900902;29;20039;-79
2022/01/08 10:51:21;;;;;;;13.63;7.55;;;16.20;34.40;;;;;;4918812;29;20028;-78
2022/01/08 10:54:14;;;;;;;13.13;7.50;;;14.40;35.80;;;;;;4902706;29;20024;-85
2022/01/08 10:56:45;;;;;;;14.05;7.10;;;12.90;37.50;;;;;;4894014;29;20032;-80
2022/01/08 10:59:22;;;;;;;13.75;7.60;;;12.20;38.40;;;;;;4901157;29;20032;-79
2022/01/08 11:01:50;;;;;;;13.82;7.80;;;12.50;38.00;;;;;;4902847;29;20032;-79
2022/01/08 11:04:30;;;;;;;16.05;8.13;;;11.90;38.20;;;;;;4901809;29;20028;-94
2022/01/08 11:07:02;;;;;;;10.82;7.00;;;10.60;39.20;;;;;;4919433;29;20044;-80
2022/01/08 11:09:28;;;;;;;13.88;7.05;;;10.00;40.50;;;;;;4903362;29;20040;-80
2022/01/08 11:11:57;;;;;;;14.32;7.07;;;9.90;41.10;;;;;;4918193;29;20060;-92
2022/01/08 11:17:17;;;;;;;16.48;9.27;;;11.10;40.40;;;;;;4921704;29;20031;-79
2022/01/08 11:19:45;;;;;;;14.43;8.50;;;12.00;38.50;;;;;;4906925;29;20048;-89
2022/01/08 11:22:14;;;;;;;16.85;8.40;;;12.70;38.00;;;;;;4923060;29;20247;-78
2022/01/08 11:24:49;;;;;;;15.18;8.20;;;13.00;37.50;;;;;;4903500;29;20039;-79
2022/01/08 11:27:19;;;;;;;14.95;8.38;;;12.60;37.20;;;;;;4903500;29;20042;-93
2022/01/08 11:29:46;;;;;;;16.52;9.10;;;12.80;38.10;;;;;;4907721;29;20028;-81
2022/01/08 11:32:13;;;;;;;13.60;8.00;;;12.90;37.90;;;;;;4925247;29;20044;-79
2022/01/08 11:34:44;;;;;;;14.48;8.63;;;12.50;37.40;;;;;;4893810;29;20499;-78
2022/01/08 11:37:11;;;;;;;14.57;8.77;;;12.20;38.40;;;;;;4886476;29;20092;-79
2022/01/08 11:39:37;;;;;;;16.75;7.70;;;11.40;38.30;;;;;;4895895;29;20035;-80
2022/01/08 11:42:04;;;;;;;15.80;8.15;;;11.30;38.50;;;;;;4883173;29;20028;-81
2022/01/08 11:44:32;;;;;;;59.35;26.98;;;11.40;38.10;;;;;;4889200;29;20036;-78
2022/01/08 11:46:59;;;;;;;26.63;14.50;;;11.50;37.30;;;;;;4881623;29;20111;-82
2022/01/08 11:49:25;;;;;;;26.10;13.85;;;11.50;38.20;;;;;;4892773;29;20102;-79
2022/01/08 11:52:14;;;;;;;24.02;13.23;;;11.70;38.70;;;;;;4896952;29;20063;-78
2022/01/08 11:54:44;;;;;;;29.83;15.07;;;11.90;39.20;;;;;;4903174;29;20020;-81
2022/01/08 11:57:17;;;;;;;;;;;11.80;38.60;;;;;;4889033;29;20033;-93
2022/01/08 11:59:45;;;;;;;18.70;10.27;;;11.80;38.30;;;;;;4881640;29;19914;-79
2022/01/08 12:02:12;;;;;;;17.08;9.15;;;12.00;38.50;;;;;;4902722;29;20055;-88
2022/01/08 12:04:40;;;;;;;15.20;8.57;;;11.90;39.30;;;;;;4898450;29;20036;-79
2022/01/08 12:07:39;;;;;;;16.58;7.22;;;11.70;38.80;;;;;;4900063;29;20024;-80
2022/01/08 12:10:20;;;;;;;13.00;6.65;;;11.50;37.80;;;;;;4916225;29;20072;-78
2022/01/08 12:12:59;;;;;;;27.27;8.10;;;11.30;37.30;;;;;;4881136;29;20499;-82
2022/01/08 12:15:40;;;;;;;15.63;7.38;;;11.50;37.80;;;;;;4887500;29;20032;-78
2022/01/08 12:18:07;;;;;;;19.02;7.45;;;11.50;38.20;;;;;;4899040;29;20394;-78
2022/01/08 12:20:51;;;;;;;14.23;7.57;;;11.30;38.10;;;;;;4916035;29;20056;-79
2022/01/08 12:23:38;;;;;;;11.45;6.60;;;11.40;37.90;;;;;;4900385;29;20357;-77
2022/01/08 12:26:24;;;;;;;13.57;6.85;;;10.80;38.50;;;;;;4899548;29;20028;-79
2022/01/08 12:28:57;;;;;;;11.73;6.40;;;10.20;38.30;;;;;;4897210;29;20127;-86
2022/01/08 12:31:47;;;;;;;14.73;8.75;;;9.00;39.40;;;;;;4898433;29;20028;-77
2022/01/08 12:34:30;;;;;;;;;;;9.20;40.20;;;;;;4890362;29;20480;-78
2022/01/08 12:37:06;;;;;;;15.90;9.27;;;10.10;39.20;;;;;;4880387;29;19908;-79
2022/01/08 12:39:44;;;;;;;13.98;7.70;;;10.60;39.70;;;;;;4890749;29;20032;-80
2022/01/08 12:42:22;;;;;;;16.90;10.68;;;10.90;39.20;;;;;;4898757;29;20095;-93
2022/01/08 12:45:02;;;;;;;12.30;7.70;;;10.60;38.60;;;;;;4915055;29;20059;-78
2022/01/08 12:47:49;;;;;;;12.70;7.10;;;10.50;38.40;;;;;;4899074;29;20031;-89
2022/01/08 12:50:55;;;;;;;11.05;7.07;;;10.80;38.30;;;;;;4896079;29;20040;-90
2022/01/08 12:53:27;;;;;;;13.80;7.30;;;11.00;38.60;;;;;;4832628;29;20455;-93
2022/01/08 12:55:56;;;;;;;13.93;7.50;;;11.20;37.80;;;;;;4840880;29;20049;-95
2022/01/08 12:58:33;;;;;;;13.02;7.63;;;11.30;37.90;;;;;;4824784;29;20034;-85
2022/01/08 13:01:04;;;;;;;15.40;8.05;;;11.10;38.40;;;;;;4836408;29;20033;-81
2022/01/08 13:03:37;;;;;;;17.48;9.57;;;10.80;38.20;;;;;;4838682;29;20030;-89
2022/01/08 13:06:21;;;;;;;14.10;8.45;;;10.30;38.80;;;;;;4841182;29;20128;-78
2022/01/08 13:08:48;;;;;;;13.38;7.65;;;10.00;39.00;;;;;;4839001;29;20038;-81
2022/01/08 13:11:17;;;;;;;13.68;6.82;;;10.50;38.30;;;;;;4838810;29;20329;-79
2022/01/08 13:13:48;;;;;;;13.38;7.15;;;10.10;38.40;;;;;;4813552;29;20469;-76
2022/01/08 13:16:19;;;;;;;12.80;7.40;;;9.60;38.80;;;;;;4838397;29;20042;-81
2022/01/08 13:18:55;;;;;;;13.15;7.40;;;9.50;40.50;;;;;;4838522;29;20048;-77
2022/01/08 13:21:25;;;;;;;15.25;7.80;;;10.00;40.30;;;;;;4823620;29;20072;-77
2022/01/08 13:23:54;;;;;;;15.25;8.00;;;10.10;39.40;;;;;;4839375;29;20026;-77
2022/01/08 13:26:30;;;;;;;14.35;8.35;;;10.20;39.50;;;;;;4850121;29;20038;-82
2022/01/08 13:28:58;;;;;;;16.00;8.65;;;10.60;40.10;;;;;;4910255;29;20049;-78
2022/01/08 13:31:44;;;;;;;13.35;8.20;;;10.90;40.20;;;;;;4896758;29;20052;-79
2022/01/08 13:34:10;;;;;;;15.80;8.82;;;11.00;40.30;;;;;;4910482;29;20028;-89
2022/01/08 13:36:51;;;;;;;14.63;7.97;;;11.00;39.30;;;;;;4915917;29;20021;-82
2022/01/08 13:39:26;;;;;;;13.32;6.90;;;10.90;39.70;;;;;;4915114;29;20028;-84
2022/01/08 13:42:12;;;;;;;13.48;7.07;;;10.70;40.10;;;;;;4898455;29;20435;-88
2022/01/08 13:44:47;;;;;;;16.27;7.15;;;10.80;41.30;;;;;;4893674;29;20066;-86
2022/01/08 13:47:19;;;;;;;14.68;8.38;;;10.70;41.40;;;;;;4900458;29;20068;-79
2022/01/08 13:49:50;;;;;;;24.05;12.02;;;10.80;40.00;;;;;;4878892;29;20024;-79
2022/01/08 13:52:21;;;;;;;;;;;10.50;39.90;;;;;;4878405;29;20047;-84
2022/01/08 13:54:46;;;;;;;13.85;8.13;;;10.00;40.30;;;;;;4879098;29;20286;-80
2022/01/08 13:57:17;;;;;;;39.78;18.23;;;10.20;40.90;;;;;;4878693;29;20028;-80
2022/01/08 13:59:43;;;;;;;22.95;10.68;;;10.40;39.60;;;;;;4877481;29;20107;-79
2022/01/08 14:02:10;;;;;;;20.35;10.32;;;10.50;41.60;;;;;;4893434;29;20503;-80
2022/01/08 14:04:37;;;;;;;16.15;7.70;;;10.70;42.30;;;;;;4876098;29;20037;-85
2022/01/08 14:07:03;;;;;;;14.85;8.05;;;10.60;42.50;;;;;;4893209;29;20420;-79
2022/01/08 14:09:32;;;;;;;16.38;8.13;;;10.30;43.50;;;;;;4876230;29;20527;-81
2022/01/08 14:12:14;;;;;;;16.23;8.73;;;10.30;43.10;;;;;;4877714;29;20577;-80
2022/01/08 14:14:50;;;;;;;14.27;7.72;;;10.30;43.20;;;;;;4879014;29;20067;-80
2022/01/08 14:17:18;;;;;;;15.35;8.70;;;10.30;42.90;;;;;;4880032;29;20028;-80
2022/01/08 14:19:46;;;;;;;22.25;11.98;;;10.30;42.90;;;;;;4882686;29;20024;-80
2022/01/08 14:22:20;;;;;;;22.67;11.48;;;10.30;43.50;;;;;;4898858;29;20025;-82
2022/01/08 14:24:49;;;;;;;27.20;14.00;;;10.10;44.20;;;;;;4881780;29;20032;-80
2022/01/08 14:27:16;;;;;;;19.00;10.60;;;9.90;44.40;;;;;;4882336;29;20013;-84
2022/01/08 14:29:48;;;;;;;21.90;11.40;;;9.80;44.20;;;;;;4882719;29;20372;-80
2022/01/08 14:32:16;;;;;;;20.30;10.35;;;9.70;44.10;;;;;;4881883;29;20040;-80
2022/01/08 14:34:56;;;;;;;19.25;10.05;;;8.90;45.40;;;;;;4913001;29;20042;-79
2022/01/08 14:37:37;;;;;;;19.80;9.48;;;7.80;47.40;;;;;;4900414;29;20087;-80
2022/01/08 14:40:15;;;;;;;25.85;13.77;;;7.90;47.70;;;;;;4901116;29;20043;-88
2022/01/08 14:42:43;;;;;;;20.30;12.63;;;8.40;47.10;;;;;;4901296;29;20134;-83
2022/01/08 14:45:19;;;;;;;17.58;9.70;;;8.70;46.80;;;;;;4900871;29;20044;-79
2022/01/08 14:47:45;;;;;;;17.02;9.20;;;8.30;46.90;;;;;;4900255;29;20448;-80
2022/01/08 14:50:16;;;;;;;18.88;10.70;;;7.60;48.20;;;;;;4917913;29;20413;-80
2022/01/08 14:52:44;;;;;;;26.70;13.73;;;7.40;48.70;;;;;;4900623;29;20027;-79
2022/01/08 14:55:15;;;;;;;53.70;24.50;;;7.70;48.00;;;;;;4901057;29;20063;-80
2022/01/08 14:57:41;;;;;;;30.90;15.68;;;7.40;47.90;;;;;;4917303;29;20057;-80
2022/01/08 15:00:09;;;;;;;37.30;18.23;;;7.10;48.30;;;;;;4917555;29;20034;-81
2022/01/08 15:02:36;;;;;;;46.03;23.02;;;7.40;48.10;;;;;;4900372;29;20024;-80
2022/01/08 15:05:08;;;;;;;52.80;22.95;;;6.90;48.70;;;;;;4917683;29;20111;-83
2022/01/08 15:07:34;;;;;;;56.53;27.48;;;6.40;49.90;;;;;;4917197;29;20218;-82
2022/01/08 15:10:00;;;;;;;120.43;51.85;;;6.80;49.80;;;;;;4900932;29;20147;-80
2022/01/08 15:12:26;;;;;;;79.85;37.45;;;7.00;49.20;;;;;;4899923;29;20734;-81
2022/01/08 15:14:55;;;;;;;62.38;29.98;;;6.70;49.60;;;;;;4900284;29;20031;-80
2022/01/08 15:17:20;;;;;;;76.03;34.95;;;6.70;49.70;;;;;;4899943;29;20062;-79
2022/01/08 15:19:46;;;;;;;55.42;26.40;;;6.60;50.30;;;;;;4883805;29;20161;-80
2022/01/08 15:22:12;;;;;;;50.72;25.15;;;6.50;50.20;;;;;;4899378;29;20024;-81
2022/01/08 15:24:40;;;;;;;60.63;27.95;;;6.70;50.10;;;;;;4899473;29;20071;-79
2022/01/08 15:27:06;;;;;;;69.45;28.63;;;7.00;49.40;;;;;;4902412;29;20476;-79
2022/01/08 15:29:32;;;;;;;69.35;32.20;;;7.30;48.70;;;;;;4898659;29;20079;-79
2022/01/08 15:31:58;;;;;;;55.25;27.23;;;7.60;48.20;;;;;;4914088;29;20060;-77
2022/01/08 15:34:25;;;;;;;52.72;26.10;;;7.90;47.70;;;;;;4914722;29;20028;-79
2022/01/08 15:36:52;;;;;;;52.97;24.52;;;8.00;47.10;;;;;;4916530;29;20463;-87
2022/01/08 15:39:19;;;;;;;50.72;22.85;;;7.70;47.00;;;;;;4903020;29;20066;-83
2022/01/08 15:41:47;;;;;;;43.35;22.20;;;7.30;47.50;;;;;;4916644;29;20076;-78
2022/01/08 15:44:12;;;;;;;42.92;22.52;;;7.60;47.40;;;;;;4895696;29;20065;-92
2022/01/08 15:46:39;;;;;;;48.08;23.60;;;7.60;47.20;;;;;;4907594;29;20020;-78
2022/01/08 15:49:05;;;;;;;42.60;21.75;;;7.50;47.30;;;;;;4881668;29;20028;-79
2022/01/08 15:51:31;;;;;;;41.22;19.90;;;7.70;47.10;;;;;;4882890;29;20512;-84
2022/01/08 15:53:57;;;;;;;47.92;22.55;;;7.60;47.10;;;;;;4900754;29;20040;-92
2022/01/08 15:56:24;;;;;;;39.28;20.55;;;7.20;47.20;;;;;;4916963;29;20097;-78
2022/01/08 15:58:50;;;;;;;39.20;20.50;;;7.30;47.50;;;;;;4892903;29;20039;-79
2022/01/08 16:01:18;;;;;;;38.33;18.63;;;7.50;47.50;;;;;;4893084;29;20024;-80
2022/01/08 16:03:47;;;;;;;36.47;19.17;;;7.70;46.90;;;;;;4905534;29;20055;-86
2022/01/08 16:06:12;;;;;;;37.10;20.10;;;7.60;46.80;;;;;;4920018;29;20114;-79
2022/01/08 16:08:38;;;;;;;37.22;18.38;;;7.70;46.90;;;;;;4899538;29;20115;-80
2022/01/08 16:11:04;;;;;;;65.75;26.35;;;7.60;46.80;;;;;;4904850;29;20032;-89
2022/01/08 16:13:29;;;;;;;41.03;21.17;;;7.70;46.90;;;;;;4893847;29;20108;-80
2022/01/08 16:15:55;;;;;;;35.92;18.60;;;7.50;46.70;;;;;;4885290;29;20081;-79
2022/01/08 16:18:21;;;;;;;44.47;21.60;;;7.20;47.20;;;;;;4886358;29;20028;-80
2022/01/08 16:20:47;;;;;;;39.70;22.45;;;7.10;47.60;;;;;;4881812;29;20491;-80
2022/01/08 16:23:17;;;;;;;129.55;61.85;;;7.20;47.70;;;;;;4883150;29;20028;-87
2022/01/08 16:25:45;;;;;;;81.13;41.45;;;7.10;48.60;;;;;;4903550;29;20023;-85
2022/01/08 16:28:18;;;;;;;218.20;69.18;;;7.00;48.30;;;;;;4881393;29;20140;-86
2022/01/08 16:30:44;;;;;;;106.47;33.78;;;6.90;49.30;;;;;;4883527;29;20039;-80
2022/01/08 16:33:15;;;;;;;193.43;60.17;;;7.20;48.80;;;;;;4917321;29;20047;-80
2022/01/08 16:35:45;;;;;;;110.50;56.30;;;7.50;48.20;;;;;;4915993;29;20356;-79
2022/01/08 16:38:12;;;;;;;76.82;44.65;;;7.50;47.60;;;;;;4919878;29;20024;-79
2022/01/08 16:40:42;;;;;;;71.70;37.72;;;7.00;47.80;;;;;;4920608;29;20020;-86
2022/01/08 16:43:08;;;;;;;65.33;33.30;;;7.10;48.20;;;;;;4901779;29;20047;-80
2022/01/08 16:45:35;;;;;;;86.10;36.45;;;7.40;47.80;;;;;;4916953;29;20056;-95
2022/01/08 16:48:03;;;;;;;91.97;41.85;;;7.40;47.40;;;;;;4891268;29;20079;-80
2022/01/08 16:50:29;;;;;;;87.97;41.40;;;7.80;46.90;;;;;;4882125;29;20024;-79
2022/01/08 16:52:56;;;;;;;40.72;22.00;;;7.90;46.50;;;;;;4889385;29;20036;-81
2022/01/08 16:55:23;;;;;;;71.95;32.90;;;7.80;46.70;;;;;;4892255;29;20063;-85
2022/01/08 16:57:49;;;;;;;71.13;33.95;;;8.10;46.20;;;;;;4900604;29;20024;-79
2022/01/08 17:00:15;;;;;;;29.27;15.75;;;8.40;45.80;;;;;;4885003;29;20059;-79
2022/01/08 17:02:42;;;;;;;24.55;12.95;;;8.40;46.40;;;;;;4893768;29;20024;-79
2022/01/08 17:05:09;;;;;;;29.20;15.93;;;8.00;46.60;;;;;;4899037;29;20506;-87
2022/01/08 17:07:39;;;;;;;29.10;15.88;;;7.70;46.40;;;;;;4898667;29;20028;-79
2022/01/08 17:10:06;;;;;;;22.90;13.02;;;7.60;46.70;;;;;;4896702;29;20056;-88
2022/01/08 17:12:32;;;;;;;28.02;15.90;;;7.90;46.30;;;;;;4908998;29;20028;-80
2022/01/08 17:14:59;;;;;;;25.52;13.48;;;8.10;46.20;;;;;;4915333;29;20044;-79
2022/01/08 17:17:25;;;;;;;24.73;13.48;;;8.30;46.20;;;;;;4918188;29;20504;-93
2022/01/08 17:19:50;;;;;;;23.30;12.75;;;8.40;46.30;;;;;;4903197;29;20527;-80
2022/01/08 17:22:18;;;;;;;25.42;13.13;;;8.20;45.80;;;;;;4902407;29;20027;-85
2022/01/08 17:24:43;;;;;;;29.92;13.07;;;7.70;46.90;;;;;;4907399;29;20496;-84
2022/01/08 17:27:11;;;;;;;25.33;13.05;;;7.80;47.30;;;;;;4900181;29;20020;-79
2022/01/08 17:29:37;;;;;;;24.88;13.00;;;8.00;47.00;;;;;;4901924;29;20460;-84
2022/01/08 17:32:03;;;;;;;26.33;13.90;;;8.10;46.90;;;;;;4916698;29;20071;-87
2022/01/08 17:34:29;;;;;;;33.60;14.90;;;8.30;46.50;;;;;;4906734;29;20400;-76
2022/01/08 17:36:56;;;;;;;29.17;15.63;;;8.50;46.20;;;;;;4883278;29;20028;-78
2022/01/08 17:39:21;;;;;;;28.10;15.02;;;8.60;46.20;;;;;;4881530;29;20039;-85
2022/01/08 17:41:47;;;;;;;31.92;15.52;;;8.70;46.00;;;;;;4880825;29;20032;-80
2022/01/08 17:44:13;;;;;;;30.00;16.38;;;8.70;45.70;;;;;;4908352;29;20034;-79
2022/01/08 17:46:38;;;;;;;30.70;16.38;;;8.70;45.80;;;;;;4903947;29;20020;-79
2022/01/08 17:49:08;;;;;;;28.52;15.32;;;8.70;46.20;;;;;;4918963;29;20032;-81
2022/01/08 17:51:39;;;;;;;27.27;13.60;;;8.80;45.70;;;;;;4917318;29;20036;-91
2022/01/08 17:54:05;;;;;;;;;;;8.70;45.30;;;;;;4913937;29;20087;-91
2022/01/08 17:56:31;;;;;;;26.65;13.73;;;8.40;45.10;;;;;;4888263;29;19911;-79
2022/01/08 17:58:56;;;;;;;29.17;14.68;;;8.20;45.50;;;;;;4912328;29;20472;-90
2022/01/08 18:01:22;;;;;;;33.25;14.38;;;8.30;45.70;;;;;;4916946;29;20035;-80
2022/01/08 18:03:48;;;;;;;25.88;14.07;;;8.30;45.70;;;;;;4891876;29;20456;-88
2022/01/08 18:06:15;;;;;;;27.33;13.98;;;8.30;46.00;;;;;;4894861;29;20016;-93
2022/01/08 18:08:41;;;;;;;26.48;14.23;;;8.40;46.60;;;;;;4892398;29;20024;-86
2022/01/08 18:11:06;;;;;;;27.42;14.68;;;8.40;46.40;;;;;;4898953;29;20035;-78
2022/01/08 18:13:33;;;;;;;29.70;14.73;;;8.40;46.30;;;;;;4911836;29;20044;-83